Time;durP1;ratioP1;P1;durP2;ratioP2;P2;SDS_P1;SDS_P2;PMS_P1;PMS_P2;Temp;Humidity;BMP_temperature;BMP_pressure;BME280_temperature;BME280_humidity;BME280_pressure;Samples;Min_cycle;Max_cycle;Signal;HPM_P1;HPM_P2
2021/10/07 00:01:54;;;;;;;3.60;1.83;;;18.80;93.20;;;;;;5032195;28;20370;-82
2021/10/07 00:04:20;;;;;;;3.80;1.67;;;18.80;93.20;;;;;;5032487;28;20040;-81
2021/10/07 00:06:45;;;;;;;2.90;1.75;;;18.80;93.10;;;;;;5032025;28;20025;-80
2021/10/07 00:09:11;;;;;;;5.60;1.65;;;18.80;93.10;;;;;;5032258;28;20398;-81
2021/10/07 00:11:37;;;;;;;4.13;1.58;;;18.80;93.00;;;;;;5032706;28;20481;-81
2021/10/07 00:14:05;;;;;;;3.35;1.67;;;18.80;93.30;;;;;;5031530;28;20382;-82
2021/10/07 00:16:31;;;;;;;4.28;1.73;;;18.70;92.90;;;;;;5032248;28;20448;-82
2021/10/07 00:18:57;;;;;;;3.95;1.70;;;18.70;92.80;;;;;;5031747;28;20049;-81
2021/10/07 00:21:23;;;;;;;3.00;1.70;;;18.70;92.80;;;;;;5032206;28;20057;-81
2021/10/07 00:24:22;;;;;;;2.75;1.30;;;18.70;92.80;;;;;;5031691;28;20466;-81
2021/10/07 00:26:45;;;;;;;2.47;1.23;;;18.70;92.70;;;;;;5029694;28;20033;-81
2021/10/07 00:31:55;;;;;;;4.22;1.30;;;18.70;92.70;;;;;;5031756;28;20048;-81
2021/10/07 00:40:00;;;;;;;3.33;1.42;;;18.70;92.50;;;;;;4959921;28;20039;-81
2021/10/07 00:42:25;;;;;;;3.92;1.67;;;18.70;92.50;;;;;;5031760;28;20063;-81
2021/10/07 00:44:51;;;;;;;3.85;1.63;;;18.70;92.40;;;;;;5031009;28;20083;-80
2021/10/07 00:47:17;;;;;;;3.90;1.67;;;18.70;92.40;;;;;;5031710;28;20458;-81
2021/10/07 00:49:43;;;;;;;2.20;1.40;;;18.60;92.30;;;;;;5031475;28;20033;-81
2021/10/07 00:52:12;;;;;;;2.75;1.42;;;18.60;92.20;;;;;;5032044;28;20567;-81
2021/10/07 00:54:38;;;;;;;3.53;1.23;;;18.60;92.20;;;;;;5031837;28;20108;-81
2021/10/07 00:57:07;;;;;;;3.42;1.50;;;18.60;92.20;;;;;;5031279;28;20109;-82
2021/10/07 00:59:36;;;;;;;4.20;1.50;;;18.60;92.10;;;;;;5030934;28;20040;-82
2021/10/07 01:02:08;;;;;;;2.97;1.55;;;18.60;92.10;;;;;;5031331;28;20031;-83
2021/10/07 01:04:34;;;;;;;3.55;1.35;;;18.60;92.10;;;;;;5031319;28;20035;-82
2021/10/07 01:07:01;;;;;;;3.05;1.50;;;18.60;92.30;;;;;;5030893;28;20028;-82
2021/10/07 01:09:31;;;;;;;4.10;1.85;;;18.50;91.90;;;;;;5031191;28;20484;-82
2021/10/07 01:11:58;;;;;;;4.03;1.98;;;18.50;91.90;;;;;;5030565;28;20021;-82
2021/10/07 01:14:48;;;;;;;2.97;1.33;;;18.50;91.80;;;;;;5031008;28;20025;-82
2021/10/07 01:17:16;;;;;;;3.33;1.52;;;18.50;91.80;;;;;;5031258;28;20489;-82
2021/10/07 01:19:43;;;;;;;3.33;1.50;;;18.50;91.80;;;;;;5030626;28;20029;-82
2021/10/07 01:22:09;;;;;;;2.80;1.48;;;18.50;91.70;;;;;;5013753;28;20485;-83
2021/10/07 01:24:35;;;;;;;2.58;1.50;;;18.50;91.70;;;;;;5031232;28;20097;-82
2021/10/07 01:27:01;;;;;;;3.72;1.55;;;18.50;91.70;;;;;;5030987;28;20025;-83
2021/10/07 01:29:27;;;;;;;2.70;1.52;;;18.50;91.60;;;;;;5030713;28;20396;-83
2021/10/07 01:31:53;;;;;;;4.10;1.60;;;18.50;91.60;;;;;;5030701;28;20032;-82
2021/10/07 01:34:27;;;;;;;3.17;1.55;;;18.50;91.60;;;;;;5030880;28;20021;-83
2021/10/07 01:36:53;;;;;;;2.60;1.35;;;18.40;91.50;;;;;;5030644;28;20052;-82
2021/10/07 01:39:20;;;;;;;2.95;1.60;;;18.40;91.50;;;;;;5031187;28;20033;-83
2021/10/07 01:41:47;;;;;;;4.05;1.80;;;18.40;91.50;;;;;;5030834;28;20029;-82
2021/10/07 01:44:13;;;;;;;4.13;1.60;;;18.40;91.40;;;;;;5030654;28;20041;-82
2021/10/07 01:46:39;;;;;;;4.20;1.67;;;18.40;91.70;;;;;;5031192;28;20053;-83
2021/10/07 01:49:06;;;;;;;4.28;1.80;;;18.40;91.40;;;;;;5030604;28;20084;-83
2021/10/07 01:51:33;;;;;;;3.63;1.83;;;18.40;91.40;;;;;;5032677;28;20056;-82
2021/10/07 01:53:58;;;;;;;4.15;1.80;;;18.40;91.30;;;;;;5034616;28;20478;-83
2021/10/07 01:56:24;;;;;;;2.85;1.67;;;18.40;91.30;;;;;;5034842;28;20029;-82
2021/10/07 01:58:49;;;;;;;3.85;1.70;;;18.30;91.20;;;;;;5033918;28;20059;-81
2021/10/07 02:01:15;;;;;;;3.78;1.42;;;18.40;91.20;;;;;;5034862;28;20041;-83
2021/10/07 02:03:41;;;;;;;4.93;1.52;;;18.30;91.20;;;;;;5036375;28;20112;-83
2021/10/07 02:06:06;;;;;;;3.03;1.45;;;18.30;91.10;;;;;;5034370;28;20025;-82
2021/10/07 02:08:32;;;;;;;3.72;1.58;;;18.30;91.10;;;;;;5034555;28;20045;-82
2021/10/07 02:10:58;;;;;;;2.83;1.27;;;18.30;91.10;;;;;;5033986;28;20037;-82
2021/10/07 02:13:24;;;;;;;3.95;1.70;;;18.30;91.00;;;;;;5034485;28;20401;-82
2021/10/07 02:15:49;;;;;;;3.70;1.90;;;18.30;91.00;;;;;;5033747;28;20084;-82
2021/10/07 02:18:15;;;;;;;4.05;1.50;;;18.30;91.00;;;;;;5034384;28;20424;-83
2021/10/07 02:20:41;;;;;;;3.97;1.60;;;18.30;91.00;;;;;;5034538;28;20028;-83
2021/10/07 02:23:06;;;;;;;3.13;1.23;;;18.30;90.90;;;;;;5034062;28;20452;-82
2021/10/07 02:25:32;;;;;;;5.32;1.52;;;18.30;90.90;;;;;;5034327;28;20025;-83
2021/10/07 02:27:58;;;;;;;2.83;1.45;;;18.30;90.90;;;;;;5034100;28;20033;-83
2021/10/07 02:30:24;;;;;;;4.68;1.30;;;18.30;90.80;;;;;;5033806;28;20068;-82
2021/10/07 02:32:49;;;;;;;3.92;2.10;;;18.20;90.80;;;;;;5015863;28;20466;-82
2021/10/07 02:35:16;;;;;;;3.55;1.63;;;18.20;90.80;;;;;;5034826;28;20049;-82
2021/10/07 02:37:44;;;;;;;3.05;1.52;;;18.20;90.70;;;;;;5034205;28;20477;-81
2021/10/07 02:40:10;;;;;;;3.40;1.52;;;18.20;90.70;;;;;;5034336;28;20022;-82
2021/10/07 02:42:37;;;;;;;3.08;1.40;;;18.20;90.70;;;;;;5033699;28;20489;-81
2021/10/07 02:45:08;;;;;;;2.80;1.48;;;18.20;90.60;;;;;;5015830;28;20048;-81
2021/10/07 02:47:34;;;;;;;3.47;1.42;;;18.20;90.60;;;;;;5033820;28;20381;-82
2021/10/07 02:50:00;;;;;;;2.70;1.35;;;18.20;90.60;;;;;;5033666;28;20053;-81
2021/10/07 02:52:26;;;;;;;4.45;1.70;;;18.20;90.60;;;;;;5033883;28;20496;-82
2021/10/07 02:54:51;;;;;;;3.67;1.88;;;18.20;90.50;;;;;;5015820;28;20021;-82
2021/10/07 02:57:17;;;;;;;3.58;1.60;;;18.20;90.50;;;;;;5016059;28;20082;-82
2021/10/07 02:59:43;;;;;;;3.70;1.45;;;18.20;90.50;;;;;;5033063;28;20435;-82
2021/10/07 03:02:09;;;;;;;4.40;1.70;;;18.20;90.40;;;;;;5033060;28;20025;-82
2021/10/07 03:04:35;;;;;;;3.20;1.80;;;18.20;90.40;;;;;;5033019;28;20512;-80
2021/10/07 03:07:01;;;;;;;3.10;1.58;;;18.10;90.40;;;;;;5033197;28;20018;-80
2021/10/07 03:09:26;;;;;;;3.50;1.48;;;18.10;90.40;;;;;;5033553;28;20079;-83
2021/10/07 03:11:52;;;;;;;2.97;1.40;;;18.10;90.30;;;;;;5014823;28;20034;-83
2021/10/07 03:14:18;;;;;;;3.17;1.50;;;18.10;90.30;;;;;;5033110;28;20091;-82
2021/10/07 03:16:43;;;;;;;3.60;1.40;;;18.10;90.30;;;;;;5033089;28;20064;-82
2021/10/07 03:19:09;;;;;;;3.17;1.90;;;18.10;90.20;;;;;;5033526;28;20105;-82
2021/10/07 03:21:37;;;;;;;4.53;1.77;;;18.10;90.40;;;;;;5033261;28;20025;-83
2021/10/07 03:24:03;;;;;;;4.22;1.70;;;18.10;90.20;;;;;;5032821;28;20504;-83
2021/10/07 03:26:29;;;;;;;2.85;1.60;;;18.10;90.20;;;;;;5033218;28;20091;-82
2021/10/07 03:28:55;;;;;;;3.40;1.55;;;18.10;90.20;;;;;;5032633;28;20053;-82
2021/10/07 03:31:21;;;;;;;4.10;1.50;;;18.10;90.10;;;;;;5032376;28;20405;-82
2021/10/07 03:33:46;;;;;;;3.40;1.75;;;18.00;90.10;;;;;;5032774;28;20056;-82
2021/10/07 03:36:12;;;;;;;2.92;1.20;;;18.00;90.10;;;;;;5033052;28;20034;-83
2021/10/07 03:38:38;;;;;;;2.83;1.50;;;18.00;90.00;;;;;;5033298;28;20481;-83
2021/10/07 03:41:03;;;;;;;2.75;1.40;;;18.00;90.00;;;;;;5032469;28;20021;-83
2021/10/07 03:43:29;;;;;;;5.18;1.45;;;18.00;90.00;;;;;;5032544;28;20453;-83
2021/10/07 03:45:55;;;;;;;3.55;1.90;;;18.00;90.00;;;;;;5032006;28;20037;-82
2021/10/07 03:48:20;;;;;;;3.97;1.67;;;18.00;90.00;;;;;;5032903;28;20358;-83
2021/10/07 03:50:47;;;;;;;3.55;1.55;;;18.00;89.90;;;;;;5032392;28;20053;-83
2021/10/07 03:53:13;;;;;;;2.75;1.60;;;18.00;89.80;;;;;;5032615;28;20025;-83
2021/10/07 03:55:38;;;;;;;3.55;1.85;;;18.00;89.80;;;;;;5032774;28;20025;-83
2021/10/07 03:58:04;;;;;;;3.13;1.40;;;18.00;89.60;;;;;;5032390;28;20030;-82
2021/10/07 04:00:29;;;;;;;4.95;2.17;;;18.00;89.60;;;;;;5032019;28;20030;-83
2021/10/07 04:02:57;;;;;;;2.22;1.23;;;18.00;89.60;;;;;;5032223;28;20095;-82
2021/10/07 04:05:24;;;;;;;2.22;1.23;;;18.00;89.50;;;;;;5032528;28;20033;-83
2021/10/07 04:07:49;;;;;;;2.28;1.40;;;18.00;89.50;;;;;;5032106;28;20029;-84
2021/10/07 04:10:15;;;;;;;3.40;1.70;;;18.00;89.40;;;;;;5031905;28;20102;-84
2021/10/07 04:12:41;;;;;;;3.25;1.33;;;17.90;89.30;;;;;;5032054;28;20026;-83
2021/10/07 04:15:07;;;;;;;3.80;1.63;;;17.90;89.20;;;;;;5031686;28;20026;-82
2021/10/07 04:17:33;;;;;;;4.35;1.55;;;17.90;89.10;;;;;;5032354;28;20041;-82
2021/10/07 04:19:58;;;;;;;3.83;1.30;;;17.90;89.10;;;;;;5031845;28;20045;-82
2021/10/07 04:22:24;;;;;;;2.65;1.67;;;17.90;89.10;;;;;;5031435;28;20033;-82
2021/10/07 04:24:50;;;;;;;3.45;1.30;;;17.90;89.00;;;;;;5031782;28;20036;-84
2021/10/07 04:27:15;;;;;;;3.80;1.42;;;17.90;89.00;;;;;;5031883;28;20437;-84
2021/10/07 04:29:43;;;;;;;3.60;1.40;;;17.90;88.90;;;;;;5031900;28;20068;-83
2021/10/07 04:32:08;;;;;;;2.55;1.35;;;17.90;88.80;;;;;;5031781;28;20076;-83
2021/10/07 04:34:34;;;;;;;2.45;1.50;;;17.90;88.70;;;;;;5014048;28;20026;-83
2021/10/07 04:37:00;;;;;;;3.20;1.10;;;17.90;88.70;;;;;;5031635;28;20017;-85
2021/10/07 04:39:26;;;;;;;2.70;1.13;;;17.90;88.70;;;;;;5031842;28;20543;-84
2021/10/07 04:41:52;;;;;;;2.72;1.38;;;17.90;88.70;;;;;;5031510;28;20029;-84
2021/10/07 04:44:18;;;;;;;2.60;1.60;;;17.90;88.60;;;;;;5031160;28;20037;-85
2021/10/07 04:46:43;;;;;;;2.63;1.23;;;17.90;88.60;;;;;;5031447;28;20100;-83
2021/10/07 04:49:09;;;;;;;2.42;1.50;;;17.90;89.20;;;;;;5031905;28;20029;-82
2021/10/07 04:51:35;;;;;;;3.78;1.50;;;17.90;88.50;;;;;;5031518;28;20022;-84
2021/10/07 04:54:01;;;;;;;4.05;1.77;;;17.90;88.40;;;;;;5031485;28;20022;-83
2021/10/07 04:56:26;;;;;;;4.43;1.40;;;17.90;88.30;;;;;;5031596;28;20100;-83
2021/10/07 04:58:54;;;;;;;3.47;1.38;;;17.90;88.20;;;;;;5030908;28;20515;-82
2021/10/07 05:01:20;;;;;;;2.20;1.23;;;17.90;88.20;;;;;;5030527;28;20080;-84
2021/10/07 05:03:46;;;;;;;3.42;1.63;;;17.90;88.10;;;;;;5031315;28;20432;-81
2021/10/07 05:06:12;;;;;;;2.78;1.58;;;17.90;88.10;;;;;;5031231;28;20029;-81
2021/10/07 05:08:37;;;;;;;3.15;1.48;;;18.00;88.10;;;;;;5031535;28;20041;-83
2021/10/07 05:11:05;;;;;;;4.43;1.88;;;18.00;88.20;;;;;;5031214;28;20018;-86
2021/10/07 05:13:31;;;;;;;3.70;1.10;;;18.00;88.10;;;;;;5031280;28;20087;-83
2021/10/07 05:15:56;;;;;;;3.25;1.50;;;18.00;88.10;;;;;;5030500;28;20017;-84
2021/10/07 05:18:22;;;;;;;3.42;1.58;;;18.00;88.10;;;;;;5031133;28;20042;-82
2021/10/07 05:20:50;;;;;;;2.85;1.25;;;18.10;88.10;;;;;;5030677;28;20076;-83
2021/10/07 05:23:15;;;;;;;2.72;1.20;;;18.10;88.10;;;;;;5030855;28;20091;-84
2021/10/07 05:25:42;;;;;;;2.60;1.40;;;18.20;88.20;;;;;;5033745;28;20021;-80
2021/10/07 05:28:07;;;;;;;2.63;1.30;;;18.20;88.20;;;;;;5041171;28;20127;-81
2021/10/07 05:30:33;;;;;;;2.83;1.48;;;18.20;88.20;;;;;;5051027;28;20435;-82
2021/10/07 05:32:59;;;;;;;3.95;1.17;;;18.20;88.10;;;;;;5033357;28;20105;-86
2021/10/07 05:35:24;;;;;;;3.65;1.40;;;18.30;88.20;;;;;;5030790;28;20079;-82
2021/10/07 05:37:50;;;;;;;2.65;1.45;;;18.30;88.10;;;;;;5030688;28;20033;-84
2021/10/07 05:40:16;;;;;;;2.80;1.30;;;18.40;88.30;;;;;;5030820;28;20028;-84
2021/10/07 05:42:41;;;;;;;2.85;1.25;;;18.30;88.10;;;;;;5030983;28;20033;-82
2021/10/07 05:45:10;;;;;;;3.17;1.20;;;18.40;88.20;;;;;;5030507;28;20520;-87
2021/10/07 05:47:37;;;;;;;1.90;1.13;;;18.40;88.10;;;;;;5023263;28;20460;-86
2021/10/07 05:50:05;;;;;;;1.92;1.10;;;18.40;88.00;;;;;;5050526;28;20550;-86
2021/10/07 05:52:30;;;;;;;2.72;1.50;;;18.50;88.00;;;;;;5050516;28;20044;-82
2021/10/07 05:54:56;;;;;;;2.13;1.27;;;18.50;87.90;;;;;;5050356;28;20477;-80
2021/10/07 05:57:22;;;;;;;4.28;1.65;;;18.60;88.30;;;;;;5050638;28;20076;-80
2021/10/07 05:59:47;;;;;;;2.80;1.30;;;18.60;88.60;;;;;;5045139;28;20081;-81
2021/10/07 06:02:13;;;;;;;3.30;1.38;;;18.60;88.60;;;;;;5032966;28;20029;-81
2021/10/07 06:04:39;;;;;;;4.25;2.20;;;18.70;88.70;;;;;;5031145;28;20033;-81
2021/10/07 06:07:04;;;;;;;6.30;3.80;;;18.70;88.90;;;;;;5030372;28;20025;-85
2021/10/07 06:09:30;;;;;;;6.78;3.10;;;18.80;89.40;;;;;;5013017;28;20068;-85
2021/10/07 06:11:56;;;;;;;8.40;3.53;;;18.80;89.40;;;;;;5029757;28;20047;-84
2021/10/07 06:14:23;;;;;;;6.57;4.03;;;18.80;89.90;;;;;;5030425;28;20044;-84
2021/10/07 06:16:53;;;;;;;11.98;3.80;;;18.90;90.00;;;;;;5030500;28;20030;-83
2021/10/07 06:19:19;;;;;;;6.97;3.80;;;18.90;90.10;;;;;;5026410;28;20389;-83
2021/10/07 06:21:45;;;;;;;6.05;3.28;;;19.00;90.10;;;;;;5028373;28;20029;-82
2021/10/07 06:24:11;;;;;;;4.40;3.13;;;19.00;90.00;;;;;;5029825;28;20037;-81
2021/10/07 06:26:38;;;;;;;6.13;3.10;;;19.00;90.00;;;;;;5030714;28;20389;-82
2021/10/07 06:29:03;;;;;;;5.68;3.00;;;19.10;89.90;;;;;;5030143;28;20038;-82
2021/10/07 06:31:29;;;;;;;7.03;2.70;;;19.10;89.70;;;;;;5030182;28;20370;-83
2021/10/07 06:33:55;;;;;;;5.93;2.85;;;19.10;89.50;;;;;;5029412;28;20378;-83
2021/10/07 06:36:20;;;;;;;5.47;2.28;;;19.10;89.40;;;;;;5029755;28;20486;-88
2021/10/07 06:38:46;;;;;;;5.30;2.42;;;19.10;89.00;;;;;;5014112;28;20448;-82
2021/10/07 06:41:11;;;;;;;5.78;2.50;;;19.20;88.70;;;;;;5033789;28;20578;-84
2021/10/07 06:43:37;;;;;;;5.07;2.42;;;19.20;88.40;;;;;;5034166;28;20033;-80
2021/10/07 06:46:03;;;;;;;4.75;2.10;;;19.20;88.20;;;;;;5033371;28;20037;-86
2021/10/07 06:48:29;;;;;;;3.70;2.08;;;19.20;88.10;;;;;;5033472;28;20055;-81
2021/10/07 06:50:54;;;;;;;6.97;2.50;;;19.20;87.90;;;;;;5033489;28;20443;-81
2021/10/07 06:53:20;;;;;;;6.63;2.72;;;19.30;87.60;;;;;;5033064;28;20405;-82
2021/10/07 06:55:45;;;;;;;4.80;2.38;;;19.20;87.20;;;;;;5033638;28;20032;-80
2021/10/07 06:58:13;;;;;;;3.95;2.08;;;19.20;87.10;;;;;;5032304;28;20108;-81
2021/10/07 07:00:40;;;;;;;5.22;2.38;;;19.20;87.00;;;;;;5032665;28;20105;-81
2021/10/07 07:03:05;;;;;;;4.55;2.15;;;19.20;86.70;;;;;;5033003;28;20041;-81
2021/10/07 07:05:31;;;;;;;3.97;2.05;;;19.20;86.50;;;;;;5033538;28;20413;-82
2021/10/07 07:07:57;;;;;;;6.47;2.70;;;19.20;86.20;;;;;;5033077;28;20087;-81
2021/10/07 07:10:22;;;;;;;7.18;2.10;;;19.20;86.10;;;;;;5032697;28;20027;-81
2021/10/07 07:12:51;;;;;;;8.60;2.53;;;19.20;86.10;;;;;;5034384;28;20477;-81
2021/10/07 07:15:17;;;;;;;8.13;2.67;;;19.20;85.90;;;;;;5045274;28;20378;-79
2021/10/07 07:17:43;;;;;;;4.85;2.25;;;19.20;85.60;;;;;;5031505;28;20166;-82
2021/10/07 07:20:10;;;;;;;6.13;2.20;;;19.20;85.60;;;;;;5036076;28;20025;-83
2021/10/07 07:22:36;;;;;;;6.88;1.90;;;19.20;85.60;;;;;;5052698;28;20044;-82
2021/10/07 07:25:03;;;;;;;5.90;2.22;;;19.20;85.60;;;;;;5034598;28;20270;-85
2021/10/07 07:27:29;;;;;;;8.20;2.58;;;19.20;85.00;;;;;;5010672;28;20018;-85
2021/10/07 07:29:55;;;;;;;4.00;2.10;;;19.10;85.40;;;;;;4994699;28;20038;-85
2021/10/07 07:32:21;;;;;;;3.95;2.20;;;19.10;85.20;;;;;;4995080;28;20026;-85
2021/10/07 07:34:47;;;;;;;2.80;2.05;;;19.10;85.20;;;;;;5012753;28;20497;-85
2021/10/07 07:37:12;;;;;;;5.10;2.60;;;19.10;85.20;;;;;;5012850;28;20034;-84
2021/10/07 07:39:38;;;;;;;4.93;2.30;;;19.10;85.10;;;;;;5013331;28;20026;-83
2021/10/07 07:42:04;;;;;;;5.63;2.08;;;19.10;84.90;;;;;;5013028;28;20060;-84
2021/10/07 07:44:30;;;;;;;5.05;1.85;;;19.10;84.90;;;;;;4995379;28;20229;-84
2021/10/07 07:46:55;;;;;;;4.15;2.20;;;19.10;84.90;;;;;;5012698;28;20457;-84
2021/10/07 07:49:22;;;;;;;4.50;2.17;;;19.10;84.70;;;;;;5012306;28;20508;-84
2021/10/07 07:51:48;;;;;;;3.78;2.30;;;19.00;84.70;;;;;;5012600;28;20068;-85
2021/10/07 07:54:14;;;;;;;4.38;2.15;;;19.00;84.70;;;;;;5012847;28;20046;-84
2021/10/07 07:56:39;;;;;;;6.32;2.63;;;19.00;84.50;;;;;;4995473;28;20053;-84
2021/10/07 07:59:07;;;;;;;5.47;2.40;;;19.00;84.30;;;;;;4994794;28;20405;-84
2021/10/07 08:01:34;;;;;;;6.00;2.72;;;19.00;85.00;;;;;;4994954;28;20030;-85
2021/10/07 08:04:00;;;;;;;4.68;2.22;;;19.00;84.10;;;;;;5012485;28;20129;-85
2021/10/07 08:06:26;;;;;;;5.40;2.60;;;18.90;84.10;;;;;;5012730;28;20093;-84
2021/10/07 08:08:51;;;;;;;5.40;2.20;;;19.00;84.20;;;;;;4994421;28;20042;-84
2021/10/07 08:11:17;;;;;;;3.92;2.08;;;18.90;84.90;;;;;;5012603;28;20022;-84
2021/10/07 08:13:42;;;;;;;3.88;2.30;;;18.90;84.20;;;;;;5012316;28;20034;-83
2021/10/07 08:16:08;;;;;;;3.33;2.35;;;18.90;84.20;;;;;;5012718;28;20045;-84
2021/10/07 08:18:34;;;;;;;5.85;2.22;;;18.90;84.20;;;;;;5012586;28;20040;-84
2021/10/07 08:20:59;;;;;;;4.05;2.58;;;18.90;84.20;;;;;;5012119;28;20100;-84
2021/10/07 08:23:29;;;;;;;4.45;2.13;;;18.90;84.10;;;;;;5012356;28;20038;-84
2021/10/07 08:25:55;;;;;;;5.70;2.42;;;18.90;84.10;;;;;;5012095;28;20436;-85
2021/10/07 08:28:22;;;;;;;3.75;1.98;;;18.90;84.10;;;;;;5012325;28;20034;-85
2021/10/07 08:30:48;;;;;;;4.97;1.73;;;18.90;84.10;;;;;;4994182;28;20393;-83
2021/10/07 08:33:13;;;;;;;4.85;2.00;;;18.90;84.00;;;;;;5012236;28;20026;-85
2021/10/07 08:35:39;;;;;;;3.53;2.03;;;18.90;84.00;;;;;;5012560;28;20029;-84
2021/10/07 08:38:05;;;;;;;4.85;2.13;;;18.80;83.90;;;;;;5011783;28;20066;-84
2021/10/07 08:40:31;;;;;;;3.78;2.22;;;18.80;84.00;;;;;;5012090;28;20477;-85
2021/10/07 08:42:57;;;;;;;3.75;2.40;;;18.80;84.60;;;;;;5011884;28;20110;-84
2021/10/07 08:45:22;;;;;;;4.25;2.20;;;18.80;83.80;;;;;;5011799;28;20049;-84
2021/10/07 08:47:51;;;;;;;4.57;1.90;;;18.80;83.80;;;;;;5011779;28;20398;-84
2021/10/07 08:50:18;;;;;;;3.47;1.52;;;18.80;83.90;;;;;;5012004;28;20037;-85
2021/10/07 08:52:44;;;;;;;3.72;1.98;;;18.80;83.90;;;;;;5011490;28;20076;-85
2021/10/07 08:55:10;;;;;;;4.68;2.25;;;18.80;83.80;;;;;;4994589;28;20388;-84
2021/10/07 08:57:36;;;;;;;5.80;2.15;;;18.80;83.90;;;;;;5011916;28;20026;-84
2021/10/07 09:00:04;;;;;;;4.55;1.88;;;18.80;83.80;;;;;;4993656;28;20029;-83
2021/10/07 09:02:33;;;;;;;3.70;1.95;;;18.80;83.90;;;;;;4993315;28;20037;-85
2021/10/07 09:05:07;;;;;;;2.88;1.63;;;18.80;83.80;;;;;;5011526;28;20030;-83
2021/10/07 09:07:33;;;;;;;3.75;2.05;;;18.80;83.80;;;;;;5011533;28;20026;-84
2021/10/07 09:09:59;;;;;;;5.40;1.90;;;18.80;83.90;;;;;;5011383;28;20379;-84
2021/10/07 09:12:24;;;;;;;3.55;1.80;;;18.80;83.90;;;;;;5011779;28;20101;-85
2021/10/07 09:14:53;;;;;;;3.63;2.20;;;18.70;83.80;;;;;;5011345;28;20030;-83
2021/10/07 09:17:21;;;;;;;4.63;2.05;;;18.70;83.70;;;;;;5011523;28;20057;-85
2021/10/07 09:19:48;;;;;;;3.53;2.10;;;18.70;83.60;;;;;;5011264;28;20053;-84
2021/10/07 09:22:15;;;;;;;6.47;2.08;;;18.70;83.60;;;;;;5011403;28;20026;-84
2021/10/07 09:24:47;;;;;;;5.50;2.05;;;18.70;83.60;;;;;;5011765;28;20069;-84
2021/10/07 09:27:28;;;;;;;3.72;2.00;;;18.70;83.60;;;;;;5011592;28;20022;-85
2021/10/07 09:30:06;;;;;;;4.47;2.10;;;18.70;83.60;;;;;;4993493;28;20117;-85
2021/10/07 09:32:38;;;;;;;4.97;1.90;;;18.70;83.50;;;;;;5011388;28;20071;-84
2021/10/07 09:35:12;;;;;;;4.88;2.10;;;18.70;83.60;;;;;;5010785;28;20061;-84
2021/10/07 09:37:41;;;;;;;4.65;2.40;;;18.70;83.60;;;;;;5011728;28;20361;-84
2021/10/07 09:40:18;;;;;;;5.03;1.92;;;18.70;83.60;;;;;;5011587;28;20054;-84
2021/10/07 09:42:50;;;;;;;3.72;1.77;;;18.70;83.60;;;;;;5010747;28;20609;-84
2021/10/07 09:45:21;;;;;;;3.08;1.70;;;18.70;83.60;;;;;;5011210;28;20457;-83
2021/10/07 09:47:53;;;;;;;4.70;1.90;;;18.70;83.70;;;;;;5011080;28;20079;-84
2021/10/07 09:50:39;;;;;;;3.35;1.80;;;18.70;83.60;;;;;;5010755;28;20099;-84
2021/10/07 09:53:26;;;;;;;3.78;1.70;;;18.70;83.60;;;;;;5010929;28;20060;-85
2021/10/07 09:55:51;;;;;;;;;;;18.70;83.60;;;;;;5011511;28;20080;-84
2021/10/07 09:58:18;;;;;;;5.53;2.25;;;18.80;83.80;;;;;;5011025;28;20336;-84
2021/10/07 10:01:02;;;;;;;2.83;1.52;;;18.80;83.70;;;;;;5010551;28;20128;-84
2021/10/07 10:03:28;;;;;;;3.28;1.58;;;18.80;83.60;;;;;;5011120;28;20046;-83
2021/10/07 10:05:53;;;;;;;3.83;1.88;;;18.80;83.50;;;;;;5010911;28;20022;-84
2021/10/07 10:08:21;;;;;;;4.22;1.73;;;18.80;83.40;;;;;;5010933;28;20064;-84
2021/10/07 10:10:48;;;;;;;2.20;1.30;;;18.90;83.30;;;;;;5010590;28;20088;-84
2021/10/07 10:13:16;;;;;;;3.33;1.58;;;18.90;83.30;;;;;;5013313;28;20572;-83
2021/10/07 10:15:42;;;;;;;3.53;1.95;;;18.90;83.20;;;;;;5014808;28;20101;-85
2021/10/07 10:18:15;;;;;;;3.33;1.77;;;18.90;83.10;;;;;;5014956;28;20374;-84
2021/10/07 10:20:46;;;;;;;2.97;1.50;;;18.90;83.10;;;;;;5014959;28;20116;-84
2021/10/07 10:23:15;;;;;;;2.88;1.58;;;18.90;83.00;;;;;;5014428;28;20038;-84
2021/10/07 10:25:57;;;;;;;2.65;1.75;;;18.90;83.10;;;;;;5014782;28;20022;-84
2021/10/07 10:28:30;;;;;;;3.30;1.58;;;18.90;83.00;;;;;;5014467;28;20037;-83
2021/10/07 10:31:05;;;;;;;5.93;1.88;;;18.90;83.00;;;;;;5014319;28;20485;-83
2021/10/07 10:33:37;;;;;;;3.60;1.45;;;18.90;83.00;;;;;;5014340;28;20038;-83
2021/10/07 10:36:25;;;;;;;2.55;1.75;;;18.90;83.00;;;;;;5014072;28;20109;-84
2021/10/07 10:39:14;;;;;;;2.25;1.48;;;18.90;82.90;;;;;;5014023;28;20026;-84
2021/10/07 10:42:18;;;;;;;3.83;1.67;;;18.90;82.90;;;;;;5014524;28;20014;-84
2021/10/07 10:44:46;;;;;;;5.18;1.67;;;18.90;82.90;;;;;;5013958;28;20034;-83
2021/10/07 10:47:12;;;;;;;2.83;1.23;;;18.90;82.80;;;;;;5014243;28;20394;-84
2021/10/07 10:49:40;;;;;;;4.35;1.58;;;18.90;82.80;;;;;;5014461;28;20034;-84
2021/10/07 10:52:21;;;;;;;3.08;1.60;;;18.90;82.80;;;;;;5013886;28;20026;-84
2021/10/07 10:54:48;;;;;;;3.08;1.65;;;18.90;82.70;;;;;;5013861;28;20504;-84
2021/10/07 10:57:31;;;;;;;3.05;1.30;;;18.90;83.00;;;;;;5014026;28;20108;-83
2021/10/07 11:00:11;;;;;;;3.40;1.75;;;19.00;82.60;;;;;;5013852;28;20021;-84
2021/10/07 11:02:41;;;;;;;2.97;1.45;;;19.00;82.60;;;;;;5014027;28;20018;-84
2021/10/07 11:05:15;;;;;;;3.50;1.60;;;19.00;82.60;;;;;;5013933;28;20030;-84
2021/10/07 11:07:41;;;;;;;3.90;1.60;;;19.00;82.40;;;;;;5014013;28;20061;-84
2021/10/07 11:10:28;;;;;;;2.28;1.40;;;19.10;82.40;;;;;;5014009;28;20441;-84
2021/10/07 11:12:56;;;;;;;3.00;1.77;;;19.10;82.30;;;;;;5013319;28;20029;-84
2021/10/07 11:15:28;;;;;;;3.13;1.52;;;19.10;82.10;;;;;;4995758;28;20053;-84
2021/10/07 11:17:56;;;;;;;2.97;1.52;;;19.10;82.00;;;;;;5012905;28;20022;-84
2021/10/07 11:20:26;;;;;;;3.15;1.27;;;19.20;81.90;;;;;;4995769;28;20038;-84
2021/10/07 11:23:01;;;;;;;2.35;1.25;;;19.20;81.80;;;;;;5013298;28;20556;-84
2021/10/07 11:25:27;;;;;;;3.67;1.35;;;19.20;81.50;;;;;;4995091;28;20029;-84
2021/10/07 11:27:53;;;;;;;4.70;1.80;;;19.30;81.40;;;;;;5012858;28;20091;-84
2021/10/07 11:30:22;;;;;;;2.35;1.17;;;19.30;81.30;;;;;;4995309;28;20102;-84
2021/10/07 11:32:50;;;;;;;3.67;1.73;;;19.40;81.20;;;;;;4995179;28;20041;-84
2021/10/07 11:35:18;;;;;;;2.55;1.42;;;19.40;81.00;;;;;;5013189;28;20026;-83
2021/10/07 11:37:59;;;;;;;2.22;1.40;;;19.50;80.90;;;;;;5012739;28;20037;-83
2021/10/07 11:40:41;;;;;;;3.90;1.67;;;19.50;80.60;;;;;;5012909;28;20029;-85
2021/10/07 11:43:09;;;;;;;2.88;1.40;;;19.60;80.50;;;;;;4995450;28;20034;-83
2021/10/07 11:45:40;;;;;;;2.15;1.15;;;19.70;80.50;;;;;;5012840;28;20065;-83
2021/10/07 11:48:09;;;;;;;2.75;1.27;;;19.70;80.80;;;;;;5012601;28;20030;-83
2021/10/07 11:50:45;;;;;;;2.15;1.40;;;19.80;79.90;;;;;;4994942;28;20030;-83
2021/10/07 11:53:11;;;;;;;;;;;19.90;79.60;;;;;;5013432;28;20021;-83
2021/10/07 11:55:43;;;;;;;3.63;1.40;;;20.00;79.20;;;;;;5013005;28;19905;-83
2021/10/07 11:58:10;;;;;;;2.38;1.50;;;20.10;78.70;;;;;;5013309;28;20060;-85
2021/10/07 12:00:47;;;;;;;2.75;1.40;;;20.20;78.10;;;;;;5012760;28;20026;-84
2021/10/07 12:03:22;;;;;;;3.38;1.50;;;20.40;81.10;;;;;;5012497;28;20042;-84
2021/10/07 12:05:57;;;;;;;2.25;1.10;;;20.50;77.20;;;;;;5012070;28;20540;-83
2021/10/07 12:08:25;;;;;;;2.22;1.40;;;20.70;76.70;;;;;;5012355;28;20405;-83
2021/10/07 12:10:53;;;;;;;2.42;1.52;;;21.00;75.90;;;;;;5012267;28;20434;-83
2021/10/07 12:13:22;;;;;;;3.63;1.30;;;21.30;74.90;;;;;;5012540;28;20018;-83
2021/10/07 12:15:55;;;;;;;3.67;1.50;;;21.60;73.90;;;;;;5012289;28;20037;-83
2021/10/07 12:18:24;;;;;;;2.92;1.58;;;22.10;95.80;;;;;;5012319;28;20370;-84
2021/10/07 12:21:03;;;;;;;4.43;1.30;;;22.50;84.60;;;;;;4994460;28;20363;-83
2021/10/07 12:23:30;;;;;;;3.58;1.25;;;22.80;77.10;;;;;;5012154;28;20485;-83
2021/10/07 12:26:02;;;;;;;3.78;1.33;;;23.10;74.80;;;;;;4994381;28;20050;-84
2021/10/07 12:28:29;;;;;;;1.83;1.23;;;23.30;71.20;;;;;;5012044;28;20097;-83
2021/10/07 12:31:03;;;;;;;2.47;1.40;;;23.40;69.40;;;;;;4993872;28;20543;-82
2021/10/07 12:33:32;;;;;;;3.47;1.10;;;23.50;68.10;;;;;;5011938;28;20370;-83
2021/10/07 12:36:14;;;;;;;2.38;1.15;;;23.60;67.00;;;;;;5011776;28;20052;-83
2021/10/07 12:38:48;;;;;;;4.22;1.48;;;23.30;67.40;;;;;;5012261;28;20492;-83
2021/10/07 12:41:14;;;;;;;2.03;1.27;;;23.00;68.00;;;;;;5011708;28;20037;-83
2021/10/07 12:43:57;;;;;;;2.10;1.27;;;22.90;68.70;;;;;;5012049;28;20045;-84
2021/10/07 12:46:24;;;;;;;2.40;1.00;;;22.70;68.80;;;;;;5011991;28;20030;-83
2021/10/07 12:48:59;;;;;;;2.28;1.00;;;22.60;69.40;;;;;;4993927;28;20440;-83
2021/10/07 12:51:34;;;;;;;1.98;1.00;;;22.50;70.00;;;;;;5011591;28;20030;-83
2021/10/07 12:54:00;;;;;;;1.58;0.95;;;22.40;70.40;;;;;;5011261;28;20076;-83
2021/10/07 12:56:31;;;;;;;2.80;1.08;;;22.30;70.70;;;;;;5011867;28;20029;-82
2021/10/07 12:59:02;;;;;;;2.53;1.20;;;22.20;70.80;;;;;;5011543;28;20059;-84
2021/10/07 13:01:29;;;;;;;1.50;0.93;;;22.10;71.00;;;;;;5011627;28;20033;-82